sensor_id;sensor_type;location;lat;lon;timestamp;temperature;humidity
75927;DHT22;64605;48.296;16.416;2023-03-14T00:01:17;12.00;51.50
75927;DHT22;64605;48.296;16.416;2023-03-14T00:03:43;11.90;51.50
75927;DHT22;64605;48.296;16.416;2023-03-14T00:06:09;11.90;51.90
75927;DHT22;64605;48.296;16.416;2023-03-14T00:08:35;11.80;51.80
75927;DHT22;64605;48.296;16.416;2023-03-14T00:11:09;11.80;51.80
75927;DHT22;64605;48.296;16.416;2023-03-14T00:13:35;11.80;52.10
75927;DHT22;64605;48.296;16.416;2023-03-14T00:16:04;11.90;52.50
75927;DHT22;64605;48.296;16.416;2023-03-14T00:18:30;11.80;52.30
75927;DHT22;64605;48.296;16.416;2023-03-14T00:21:00;11.90;52.30
75927;DHT22;64605;48.296;16.416;2023-03-14T00:23:30;11.90;52.40
75927;DHT22;64605;48.296;16.416;2023-03-14T00:26:17;11.90;52.30
75927;DHT22;64605;48.296;16.416;2023-03-14T00:28:43;11.80;52.20
75927;DHT22;64605;48.296;16.416;2023-03-14T00:31:12;11.80;52.10
75927;DHT22;64605;48.296;16.416;2023-03-14T00:33:38;11.80;52.50
75927;DHT22;64605;48.296;16.416;2023-03-14T00:36:07;11.80;52.50
75927;DHT22;64605;48.296;16.416;2023-03-14T00:38:37;11.70;52.80
75927;DHT22;64605;48.296;16.416;2023-03-14T00:41:12;11.70;52.60
75927;DHT22;64605;48.296;16.416;2023-03-14T00:43:38;11.70;52.60
75927;DHT22;64605;48.296;16.416;2023-03-14T00:46:05;11.70;52.60
75927;DHT22;64605;48.296;16.416;2023-03-14T00:48:31;11.70;52.60
75927;DHT22;64605;48.296;16.416;2023-03-14T00:50:56;11.70;52.50
75927;DHT22;64605;48.296;16.416;2023-03-14T00:53:22;11.60;52.30
75927;DHT22;64605;48.296;16.416;2023-03-14T00:55:48;11.60;52.30
75927;DHT22;64605;48.296;16.416;2023-03-14T00:58:16;11.50;52.50
75927;DHT22;64605;48.296;16.416;2023-03-14T01:00:42;11.50;52.70
75927;DHT22;64605;48.296;16.416;2023-03-14T01:03:09;11.50;53.00
75927;DHT22;64605;48.296;16.416;2023-03-14T01:05:36;11.50;53.20
75927;DHT22;64605;48.296;16.416;2023-03-14T01:08:03;11.50;53.10
75927;DHT22;64605;48.296;16.416;2023-03-14T01:10:29;11.50;53.10
75927;DHT22;64605;48.296;16.416;2023-03-14T01:12:55;11.40;53.20
75927;DHT22;64605;48.296;16.416;2023-03-14T01:15:21;11.40;53.10
75927;DHT22;64605;48.296;16.416;2023-03-14T01:17:47;11.40;53.10
75927;DHT22;64605;48.296;16.416;2023-03-14T01:20:13;11.40;53.10
75927;DHT22;64605;48.296;16.416;2023-03-14T01:22:40;11.30;53.30
75927;DHT22;64605;48.296;16.416;2023-03-14T01:25:08;11.30;53.40
75927;DHT22;64605;48.296;16.416;2023-03-14T01:27:34;11.30;53.50
75927;DHT22;64605;48.296;16.416;2023-03-14T01:30:00;11.20;53.60
75927;DHT22;64605;48.296;16.416;2023-03-14T01:32:26;11.10;53.70
75927;DHT22;64605;48.296;16.416;2023-03-14T01:34:51;11.00;53.60
75927;DHT22;64605;48.296;16.416;2023-03-14T01:37:18;11.00;53.60
75927;DHT22;64605;48.296;16.416;2023-03-14T01:39:43;10.90;53.90
75927;DHT22;64605;48.296;16.416;2023-03-14T01:42:09;10.80;54.00
75927;DHT22;64605;48.296;16.416;2023-03-14T01:47:17;10.70;54.60
75927;DHT22;64605;48.296;16.416;2023-03-14T01:49:46;10.60;54.70
75927;DHT22;64605;48.296;16.416;2023-03-14T01:52:20;10.60;55.00
75927;DHT22;64605;48.296;16.416;2023-03-14T01:54:55;10.50;55.20
75927;DHT22;64605;48.296;16.416;2023-03-14T01:57:41;10.50;55.30
75927;DHT22;64605;48.296;16.416;2023-03-14T02:00:12;10.40;55.50
75927;DHT22;64605;48.296;16.416;2023-03-14T02:02:43;10.40;55.60
75927;DHT22;64605;48.296;16.416;2023-03-14T02:05:12;10.30;55.60
75927;DHT22;64605;48.296;16.416;2023-03-14T02:07:49;10.30;55.80
75927;DHT22;64605;48.296;16.416;2023-03-14T02:10:17;10.30;55.90
75927;DHT22;64605;48.296;16.416;2023-03-14T02:12:45;10.20;55.90
75927;DHT22;64605;48.296;16.416;2023-03-14T02:15:12;10.20;56.20
75927;DHT22;64605;48.296;16.416;2023-03-14T02:17:38;10.10;56.20
75927;DHT22;64605;48.296;16.416;2023-03-14T02:22:50;10.10;56.80
75927;DHT22;64605;48.296;16.416;2023-03-14T02:27:43;10.00;57.20
75927;DHT22;64605;48.296;16.416;2023-03-14T02:30:15;10.00;57.20
75927;DHT22;64605;48.296;16.416;2023-03-14T02:32:45;10.00;57.30
75927;DHT22;64605;48.296;16.416;2023-03-14T02:35:15;10.00;57.30
75927;DHT22;64605;48.296;16.416;2023-03-14T02:37:50;10.10;57.40
75927;DHT22;64605;48.296;16.416;2023-03-14T02:40:16;10.10;57.40
75927;DHT22;64605;48.296;16.416;2023-03-14T02:42:42;10.10;57.40
75927;DHT22;64605;48.296;16.416;2023-03-14T02:47:33;10.10;57.50
75927;DHT22;64605;48.296;16.416;2023-03-14T02:50:03;10.10;57.40
75927;DHT22;64605;48.296;16.416;2023-03-14T02:52:29;10.10;57.40
75927;DHT22;64605;48.296;16.416;2023-03-14T02:54:55;10.10;57.30
75927;DHT22;64605;48.296;16.416;2023-03-14T02:57:21;10.10;57.40
75927;DHT22;64605;48.296;16.416;2023-03-14T02:59:46;10.10;57.70
75927;DHT22;64605;48.296;16.416;2023-03-14T03:02:12;10.10;57.40
75927;DHT22;64605;48.296;16.416;2023-03-14T03:04:38;10.10;57.60
75927;DHT22;64605;48.296;16.416;2023-03-14T03:07:04;10.10;57.80
75927;DHT22;64605;48.296;16.416;2023-03-14T03:09:29;10.00;58.00
75927;DHT22;64605;48.296;16.416;2023-03-14T03:11:55;10.00;58.00
75927;DHT22;64605;48.296;16.416;2023-03-14T03:14:20;10.00;58.10
75927;DHT22;64605;48.296;16.416;2023-03-14T03:16:46;10.10;58.20
75927;DHT22;64605;48.296;16.416;2023-03-14T03:19:12;10.10;58.20
75927;DHT22;64605;48.296;16.416;2023-03-14T03:21:39;10.10;58.10
75927;DHT22;64605;48.296;16.416;2023-03-14T03:24:05;10.10;58.20
75927;DHT22;64605;48.296;16.416;2023-03-14T03:26:33;10.20;58.20
75927;DHT22;64605;48.296;16.416;2023-03-14T03:28:59;10.20;58.30
75927;DHT22;64605;48.296;16.416;2023-03-14T03:31:25;10.20;58.20
75927;DHT22;64605;48.296;16.416;2023-03-14T03:33:51;10.30;58.10
75927;DHT22;64605;48.296;16.416;2023-03-14T03:36:21;10.30;58.10
75927;DHT22;64605;48.296;16.416;2023-03-14T03:38:48;10.30;58.00
75927;DHT22;64605;48.296;16.416;2023-03-14T03:41:14;10.30;59.10
75927;DHT22;64605;48.296;16.416;2023-03-14T03:43:39;10.30;58.00
75927;DHT22;64605;48.296;16.416;2023-03-14T03:46:06;10.20;57.70
75927;DHT22;64605;48.296;16.416;2023-03-14T03:48:32;10.20;57.70
75927;DHT22;64605;48.296;16.416;2023-03-14T03:50:58;10.20;57.70
75927;DHT22;64605;48.296;16.416;2023-03-14T03:53:24;10.20;57.60
75927;DHT22;64605;48.296;16.416;2023-03-14T03:55:49;10.20;57.50
75927;DHT22;64605;48.296;16.416;2023-03-14T03:58:15;10.20;57.50
75927;DHT22;64605;48.296;16.416;2023-03-14T04:00:41;10.20;57.40
75927;DHT22;64605;48.296;16.416;2023-03-14T04:03:06;10.20;57.20
75927;DHT22;64605;48.296;16.416;2023-03-14T04:05:32;10.20;57.20
75927;DHT22;64605;48.296;16.416;2023-03-14T04:07:59;10.20;57.20
75927;DHT22;64605;48.296;16.416;2023-03-14T04:10:25;10.20;57.20
75927;DHT22;64605;48.296;16.416;2023-03-14T04:12:51;10.20;57.00
75927;DHT22;64605;48.296;16.416;2023-03-14T04:15:17;10.20;57.00
75927;DHT22;64605;48.296;16.416;2023-03-14T04:17:43;10.20;57.00
75927;DHT22;64605;48.296;16.416;2023-03-14T04:20:09;10.20;57.10
75927;DHT22;64605;48.296;16.416;2023-03-14T04:22:39;10.20;57.20
75927;DHT22;64605;48.296;16.416;2023-03-14T04:25:05;10.20;57.30
75927;DHT22;64605;48.296;16.416;2023-03-14T04:27:31;10.30;57.20
75927;DHT22;64605;48.296;16.416;2023-03-14T04:29:57;10.30;57.10
75927;DHT22;64605;48.296;16.416;2023-03-14T04:32:23;10.40;56.80
75927;DHT22;64605;48.296;16.416;2023-03-14T04:34:48;10.40;56.50
75927;DHT22;64605;48.296;16.416;2023-03-14T04:37:14;10.40;56.30
75927;DHT22;64605;48.296;16.416;2023-03-14T04:39:40;10.40;56.40
75927;DHT22;64605;48.296;16.416;2023-03-14T04:42:05;10.40;56.20
75927;DHT22;64605;48.296;16.416;2023-03-14T04:44:31;10.50;56.30
75927;DHT22;64605;48.296;16.416;2023-03-14T04:46:56;10.50;56.40
75927;DHT22;64605;48.296;16.416;2023-03-14T04:49:23;10.50;56.50
75927;DHT22;64605;48.296;16.416;2023-03-14T04:51:48;10.50;56.30
75927;DHT22;64605;48.296;16.416;2023-03-14T04:54:16;10.50;56.20
75927;DHT22;64605;48.296;16.416;2023-03-14T04:56:42;10.50;56.30
75927;DHT22;64605;48.296;16.416;2023-03-14T04:59:08;10.60;56.20
75927;DHT22;64605;48.296;16.416;2023-03-14T05:01:34;10.60;56.20
75927;DHT22;64605;48.296;16.416;2023-03-14T05:04:00;10.60;56.10
75927;DHT22;64605;48.296;16.416;2023-03-14T05:06:25;10.70;56.30
75927;DHT22;64605;48.296;16.416;2023-03-14T05:08:51;10.70;56.10
75927;DHT22;64605;48.296;16.416;2023-03-14T05:11:17;10.70;55.70
75927;DHT22;64605;48.296;16.416;2023-03-14T05:13:43;10.70;56.60
75927;DHT22;64605;48.296;16.416;2023-03-14T05:16:10;10.70;55.50
75927;DHT22;64605;48.296;16.416;2023-03-14T05:18:36;10.70;55.40
75927;DHT22;64605;48.296;16.416;2023-03-14T05:21:03;10.80;55.60
75927;DHT22;64605;48.296;16.416;2023-03-14T05:23:29;10.80;55.20
75927;DHT22;64605;48.296;16.416;2023-03-14T05:25:55;10.80;55.10
75927;DHT22;64605;48.296;16.416;2023-03-14T05:28:20;10.70;55.30
75927;DHT22;64605;48.296;16.416;2023-03-14T05:30:46;10.70;55.40
75927;DHT22;64605;48.296;16.416;2023-03-14T05:33:12;10.70;55.40
75927;DHT22;64605;48.296;16.416;2023-03-14T05:35:38;10.80;55.50
75927;DHT22;64605;48.296;16.416;2023-03-14T05:38:03;10.80;55.50
75927;DHT22;64605;48.296;16.416;2023-03-14T05:40:29;10.80;55.60
75927;DHT22;64605;48.296;16.416;2023-03-14T05:42:55;10.80;55.60
75927;DHT22;64605;48.296;16.416;2023-03-14T05:45:20;10.90;55.60
75927;DHT22;64605;48.296;16.416;2023-03-14T05:47:46;10.90;55.10
75927;DHT22;64605;48.296;16.416;2023-03-14T05:50:12;10.90;55.00
75927;DHT22;64605;48.296;16.416;2023-03-14T05:52:38;10.90;55.00
75927;DHT22;64605;48.296;16.416;2023-03-14T05:55:04;10.90;55.20
75927;DHT22;64605;48.296;16.416;2023-03-14T05:57:29;10.80;55.30
75927;DHT22;64605;48.296;16.416;2023-03-14T05:59:55;10.80;55.50
75927;DHT22;64605;48.296;16.416;2023-03-14T06:02:21;10.90;55.30
75927;DHT22;64605;48.296;16.416;2023-03-14T06:04:46;11.00;55.30
75927;DHT22;64605;48.296;16.416;2023-03-14T06:07:12;11.00;54.80
75927;DHT22;64605;48.296;16.416;2023-03-14T06:09:38;11.10;55.00
75927;DHT22;64605;48.296;16.416;2023-03-14T06:12:05;11.20;55.40
75927;DHT22;64605;48.296;16.416;2023-03-14T06:14:31;11.30;55.10
75927;DHT22;64605;48.296;16.416;2023-03-14T06:16:57;11.30;54.60
75927;DHT22;64605;48.296;16.416;2023-03-14T06:19:24;11.40;54.80
75927;DHT22;64605;48.296;16.416;2023-03-14T06:21:51;11.50;54.40
75927;DHT22;64605;48.296;16.416;2023-03-14T06:24:17;11.60;53.90
75927;DHT22;64605;48.296;16.416;2023-03-14T06:26:42;11.60;53.90
75927;DHT22;64605;48.296;16.416;2023-03-14T06:29:08;11.60;54.00
75927;DHT22;64605;48.296;16.416;2023-03-14T06:31:34;11.70;53.90
75927;DHT22;64605;48.296;16.416;2023-03-14T06:34:00;11.70;54.00
75927;DHT22;64605;48.296;16.416;2023-03-14T06:36:26;11.90;54.10
75927;DHT22;64605;48.296;16.416;2023-03-14T06:38:52;12.10;53.50
75927;DHT22;64605;48.296;16.416;2023-03-14T06:41:18;12.20;53.20
75927;DHT22;64605;48.296;16.416;2023-03-14T06:43:43;12.30;52.80
75927;DHT22;64605;48.296;16.416;2023-03-14T06:46:09;12.50;52.90
75927;DHT22;64605;48.296;16.416;2023-03-14T06:48:34;12.70;52.30
75927;DHT22;64605;48.296;16.416;2023-03-14T06:51:00;12.80;51.90
75927;DHT22;64605;48.296;16.416;2023-03-14T06:53:26;12.90;51.90
75927;DHT22;64605;48.296;16.416;2023-03-14T06:55:51;13.00;51.80
75927;DHT22;64605;48.296;16.416;2023-03-14T06:58:17;13.20;51.50
75927;DHT22;64605;48.296;16.416;2023-03-14T07:00:43;13.40;51.10
75927;DHT22;64605;48.296;16.416;2023-03-14T07:03:10;13.70;50.70
75927;DHT22;64605;48.296;16.416;2023-03-14T07:05:36;13.90;49.90
75927;DHT22;64605;48.296;16.416;2023-03-14T07:08:01;14.10;49.20
75927;DHT22;64605;48.296;16.416;2023-03-14T07:10:27;14.20;48.50
75927;DHT22;64605;48.296;16.416;2023-03-14T07:12:53;14.40;49.00
75927;DHT22;64605;48.296;16.416;2023-03-14T07:15:19;14.70;48.70
75927;DHT22;64605;48.296;16.416;2023-03-14T07:17:45;15.10;48.50
75927;DHT22;64605;48.296;16.416;2023-03-14T07:20:11;15.50;47.10
75927;DHT22;64605;48.296;16.416;2023-03-14T07:22:36;15.80;45.80
75927;DHT22;64605;48.296;16.416;2023-03-14T07:25:02;16.10;45.10
75927;DHT22;64605;48.296;16.416;2023-03-14T07:27:28;16.30;44.50
75927;DHT22;64605;48.296;16.416;2023-03-14T07:29:53;16.30;43.90
75927;DHT22;64605;48.296;16.416;2023-03-14T07:32:19;16.20;44.00
75927;DHT22;64605;48.296;16.416;2023-03-14T07:34:44;16.20;43.90
75927;DHT22;64605;48.296;16.416;2023-03-14T07:37:10;16.10;44.30
75927;DHT22;64605;48.296;16.416;2023-03-14T07:39:36;16.00;44.30
75927;DHT22;64605;48.296;16.416;2023-03-14T07:42:01;15.90;44.70
75927;DHT22;64605;48.296;16.416;2023-03-14T07:44:27;15.80;45.50
75927;DHT22;64605;48.296;16.416;2023-03-14T07:46:53;15.70;45.80
75927;DHT22;64605;48.296;16.416;2023-03-14T07:49:19;15.70;46.20
75927;DHT22;64605;48.296;16.416;2023-03-14T07:51:47;15.80;46.40
75927;DHT22;64605;48.296;16.416;2023-03-14T07:54:13;15.80;45.90
75927;DHT22;64605;48.296;16.416;2023-03-14T07:56:38;15.70;46.10
75927;DHT22;64605;48.296;16.416;2023-03-14T07:59:05;15.70;46.60
75927;DHT22;64605;48.296;16.416;2023-03-14T08:01:31;15.70;46.50
75927;DHT22;64605;48.296;16.416;2023-03-14T08:03:56;15.70;46.80
75927;DHT22;64605;48.296;16.416;2023-03-14T08:06:22;15.70;46.60
75927;DHT22;64605;48.296;16.416;2023-03-14T08:08:48;15.70;46.60
75927;DHT22;64605;48.296;16.416;2023-03-14T08:11:13;15.60;46.50
75927;DHT22;64605;48.296;16.416;2023-03-14T08:13:39;15.60;46.10
75927;DHT22;64605;48.296;16.416;2023-03-14T08:16:05;15.60;46.50
75927;DHT22;64605;48.296;16.416;2023-03-14T08:18:32;15.60;47.10
75927;DHT22;64605;48.296;16.416;2023-03-14T08:20:57;15.60;47.40
75927;DHT22;64605;48.296;16.416;2023-03-14T08:23:24;15.70;47.30
75927;DHT22;64605;48.296;16.416;2023-03-14T08:25:50;15.80;47.20
75927;DHT22;64605;48.296;16.416;2023-03-14T08:28:17;15.80;46.80
75927;DHT22;64605;48.296;16.416;2023-03-14T08:30:43;15.90;47.10
75927;DHT22;64605;48.296;16.416;2023-03-14T08:33:08;16.00;47.00
75927;DHT22;64605;48.296;16.416;2023-03-14T08:35:34;16.00;46.70
75927;DHT22;64605;48.296;16.416;2023-03-14T08:38:00;16.00;46.80
75927;DHT22;64605;48.296;16.416;2023-03-14T08:40:26;16.10;46.50
75927;DHT22;64605;48.296;16.416;2023-03-14T08:42:52;16.00;46.20
75927;DHT22;64605;48.296;16.416;2023-03-14T08:45:18;16.00;46.00
75927;DHT22;64605;48.296;16.416;2023-03-14T08:47:44;16.00;45.90
75927;DHT22;64605;48.296;16.416;2023-03-14T08:50:12;15.90;45.90
75927;DHT22;64605;48.296;16.416;2023-03-14T08:52:38;15.80;46.00
75927;DHT22;64605;48.296;16.416;2023-03-14T08:55:06;15.80;46.10
75927;DHT22;64605;48.296;16.416;2023-03-14T08:57:32;15.80;46.00
75927;DHT22;64605;48.296;16.416;2023-03-14T08:59:58;15.80;46.00
75927;DHT22;64605;48.296;16.416;2023-03-14T09:02:25;15.80;46.10
75927;DHT22;64605;48.296;16.416;2023-03-14T09:04:51;15.80;46.20
75927;DHT22;64605;48.296;16.416;2023-03-14T09:07:17;15.90;46.20
75927;DHT22;64605;48.296;16.416;2023-03-14T09:09:43;16.00;46.00
75927;DHT22;64605;48.296;16.416;2023-03-14T09:12:08;16.10;45.60
75927;DHT22;64605;48.296;16.416;2023-03-14T09:14:34;16.10;45.70
75927;DHT22;64605;48.296;16.416;2023-03-14T09:17:00;16.10;45.50
75927;DHT22;64605;48.296;16.416;2023-03-14T09:19:26;16.10;45.50
75927;DHT22;64605;48.296;16.416;2023-03-14T09:21:51;16.10;45.60
75927;DHT22;64605;48.296;16.416;2023-03-14T09:24:17;16.10;45.60
75927;DHT22;64605;48.296;16.416;2023-03-14T09:26:43;16.10;45.80
75927;DHT22;64605;48.296;16.416;2023-03-14T09:29:09;16.20;46.20
75927;DHT22;64605;48.296;16.416;2023-03-14T09:31:34;16.20;46.00
75927;DHT22;64605;48.296;16.416;2023-03-14T09:34:01;16.20;46.00
75927;DHT22;64605;48.296;16.416;2023-03-14T09:36:26;16.30;45.80
75927;DHT22;64605;48.296;16.416;2023-03-14T09:38:52;16.30;45.80
75927;DHT22;64605;48.296;16.416;2023-03-14T09:43:48;16.30;45.60
75927;DHT22;64605;48.296;16.416;2023-03-14T09:46:16;16.30;46.20
75927;DHT22;64605;48.296;16.416;2023-03-14T09:48:44;16.30;45.70
75927;DHT22;64605;48.296;16.416;2023-03-14T09:51:17;16.30;45.40
75927;DHT22;64605;48.296;16.416;2023-03-14T09:53:46;16.20;45.30
75927;DHT22;64605;48.296;16.416;2023-03-14T09:58:57;16.10;46.40
75927;DHT22;64605;48.296;16.416;2023-03-14T10:01:29;16.10;46.30
75927;DHT22;64605;48.296;16.416;2023-03-14T10:03:57;16.10;46.30
75927;DHT22;64605;48.296;16.416;2023-03-14T10:06:26;16.10;46.40
75927;DHT22;64605;48.296;16.416;2023-03-14T10:08:53;16.10;46.30
75927;DHT22;64605;48.296;16.416;2023-03-14T10:11:20;16.10;46.40
75927;DHT22;64605;48.296;16.416;2023-03-14T10:14:01;16.20;46.20
75927;DHT22;64605;48.296;16.416;2023-03-14T10:16:30;16.20;46.90
75927;DHT22;64605;48.296;16.416;2023-03-14T10:19:05;16.30;46.20
75927;DHT22;64605;48.296;16.416;2023-03-14T10:21:36;16.30;45.80
75927;DHT22;64605;48.296;16.416;2023-03-14T10:24:22;16.30;45.90
75927;DHT22;64605;48.296;16.416;2023-03-14T10:26:51;16.40;47.30
75927;DHT22;64605;48.296;16.416;2023-03-14T10:29:17;16.40;47.30
75927;DHT22;64605;48.296;16.416;2023-03-14T10:32:03;16.50;47.60
75927;DHT22;64605;48.296;16.416;2023-03-14T10:34:33;16.50;48.20
75927;DHT22;64605;48.296;16.416;2023-03-14T10:37:18;16.50;47.90
75927;DHT22;64605;48.296;16.416;2023-03-14T10:39:51;16.60;47.90
75927;DHT22;64605;48.296;16.416;2023-03-14T10:42:28;16.50;48.30
75927;DHT22;64605;48.296;16.416;2023-03-14T10:45:01;16.50;48.60
75927;DHT22;64605;48.296;16.416;2023-03-14T10:47:28;16.50;48.10
75927;DHT22;64605;48.296;16.416;2023-03-14T10:49:54;16.50;48.00
75927;DHT22;64605;48.296;16.416;2023-03-14T10:52:24;16.40;47.90
75927;DHT22;64605;48.296;16.416;2023-03-14T10:55:02;16.30;47.40
75927;DHT22;64605;48.296;16.416;2023-03-14T10:57:29;16.30;47.90
75927;DHT22;64605;48.296;16.416;2023-03-14T10:59:56;16.20;48.00
75927;DHT22;64605;48.296;16.416;2023-03-14T11:02:31;16.10;47.80
75927;DHT22;64605;48.296;16.416;2023-03-14T11:07:42;16.10;47.70
75927;DHT22;64605;48.296;16.416;2023-03-14T11:10:23;16.10;47.30
75927;DHT22;64605;48.296;16.416;2023-03-14T11:16:06;16.20;46.70
75927;DHT22;64605;48.296;16.416;2023-03-14T11:19:00;16.10;45.90
75927;DHT22;64605;48.296;16.416;2023-03-14T11:21:52;16.00;45.90
75927;DHT22;64605;48.296;16.416;2023-03-14T11:27:00;16.00;45.70
75927;DHT22;64605;48.296;16.416;2023-03-14T11:31:58;16.00;45.30
75927;DHT22;64605;48.296;16.416;2023-03-14T11:34:29;16.00;45.20
75927;DHT22;64605;48.296;16.416;2023-03-14T11:37:07;16.00;45.30
75927;DHT22;64605;48.296;16.416;2023-03-14T11:39:41;15.90;45.40
75927;DHT22;64605;48.296;16.416;2023-03-14T11:42:17;15.90;45.70
75927;DHT22;64605;48.296;16.416;2023-03-14T11:44:46;15.90;45.60
75927;DHT22;64605;48.296;16.416;2023-03-14T11:47:37;15.80;45.70
75927;DHT22;64605;48.296;16.416;2023-03-14T11:50:15;15.80;45.50
75927;DHT22;64605;48.296;16.416;2023-03-14T11:52:53;15.60;45.80
75927;DHT22;64605;48.296;16.416;2023-03-14T11:55:31;15.60;45.80
75927;DHT22;64605;48.296;16.416;2023-03-14T11:58:12;15.60;46.00
75927;DHT22;64605;48.296;16.416;2023-03-14T12:00:38;15.60;46.10
75927;DHT22;64605;48.296;16.416;2023-03-14T12:08:32;15.40;46.50
75927;DHT22;64605;48.296;16.416;2023-03-14T12:11:03;15.40;46.60
75927;DHT22;64605;48.296;16.416;2023-03-14T12:13:34;15.40;46.70
75927;DHT22;64605;48.296;16.416;2023-03-14T12:16:06;15.30;46.60
75927;DHT22;64605;48.296;16.416;2023-03-14T12:18:37;15.30;46.80
75927;DHT22;64605;48.296;16.416;2023-03-14T12:21:06;15.30;47.10
75927;DHT22;64605;48.296;16.416;2023-03-14T12:23:52;15.30;47.20
75927;DHT22;64605;48.296;16.416;2023-03-14T12:26:24;15.20;47.10
75927;DHT22;64605;48.296;16.416;2023-03-14T12:39:31;15.10;47.40
75927;DHT22;64605;48.296;16.416;2023-03-14T12:42:17;15.10;47.60
75927;DHT22;64605;48.296;16.416;2023-03-14T12:44:47;15.10;47.60
75927;DHT22;64605;48.296;16.416;2023-03-14T12:49:42;15.20;48.00
75927;DHT22;64605;48.296;16.416;2023-03-14T12:52:36;15.10;47.80
75927;DHT22;64605;48.296;16.416;2023-03-14T12:55:21;15.10;48.00
75927;DHT22;64605;48.296;16.416;2023-03-14T13:00:32;15.10;47.80
75927;DHT22;64605;48.296;16.416;2023-03-14T13:11:05;15.10;47.90
75927;DHT22;64605;48.296;16.416;2023-03-14T13:13:34;15.00;47.90
75927;DHT22;64605;48.296;16.416;2023-03-14T13:16:02;15.00;48.10
75927;DHT22;64605;48.296;16.416;2023-03-14T13:18:41;15.00;48.00
75927;DHT22;64605;48.296;16.416;2023-03-14T13:21:17;15.00;48.00
75927;DHT22;64605;48.296;16.416;2023-03-14T13:24:00;15.10;48.00
75927;DHT22;64605;48.296;16.416;2023-03-14T13:26:35;15.10;47.80
75927;DHT22;64605;48.296;16.416;2023-03-14T13:29:30;15.10;47.70
75927;DHT22;64605;48.296;16.416;2023-03-14T13:31:58;15.10;47.90
75927;DHT22;64605;48.296;16.416;2023-03-14T13:34:34;15.10;47.50
75927;DHT22;64605;48.296;16.416;2023-03-14T13:37:00;15.00;47.50
75927;DHT22;64605;48.296;16.416;2023-03-14T13:39:28;15.00;47.50
75927;DHT22;64605;48.296;16.416;2023-03-14T13:41:58;15.00;47.50
75927;DHT22;64605;48.296;16.416;2023-03-14T13:44:31;15.00;47.40
75927;DHT22;64605;48.296;16.416;2023-03-14T13:47:01;15.00;47.50
75927;DHT22;64605;48.296;16.416;2023-03-14T13:49:29;15.00;47.20
75927;DHT22;64605;48.296;16.416;2023-03-14T13:51:58;14.90;47.10
75927;DHT22;64605;48.296;16.416;2023-03-14T13:54:25;14.90;47.20
75927;DHT22;64605;48.296;16.416;2023-03-14T13:57:02;14.90;47.20
75927;DHT22;64605;48.296;16.416;2023-03-14T13:59:33;15.00;47.20
75927;DHT22;64605;48.296;16.416;2023-03-14T14:02:03;15.00;46.90
75927;DHT22;64605;48.296;16.416;2023-03-14T14:04:32;15.00;47.10
75927;DHT22;64605;48.296;16.416;2023-03-14T14:06:59;15.00;47.00
75927;DHT22;64605;48.296;16.416;2023-03-14T14:09:31;15.00;47.10
75927;DHT22;64605;48.296;16.416;2023-03-14T14:12:06;15.00;47.30
75927;DHT22;64605;48.296;16.416;2023-03-14T14:14:38;15.10;47.30
75927;DHT22;64605;48.296;16.416;2023-03-14T14:17:15;15.00;47.50
75927;DHT22;64605;48.296;16.416;2023-03-14T14:19:42;15.00;47.30
75927;DHT22;64605;48.296;16.416;2023-03-14T14:22:09;14.90;47.40
75927;DHT22;64605;48.296;16.416;2023-03-14T14:24:37;14.90;47.60
75927;DHT22;64605;48.296;16.416;2023-03-14T14:29:39;14.90;47.30
75927;DHT22;64605;48.296;16.416;2023-03-14T14:34:56;14.90;47.40
75927;DHT22;64605;48.296;16.416;2023-03-14T14:37:25;14.90;47.40
75927;DHT22;64605;48.296;16.416;2023-03-14T14:39:54;15.00;47.60
75927;DHT22;64605;48.296;16.416;2023-03-14T14:42:21;15.00;49.00
75927;DHT22;64605;48.296;16.416;2023-03-14T14:44:50;15.00;48.30
75927;DHT22;64605;48.296;16.416;2023-03-14T14:47:20;15.10;48.30
75927;DHT22;64605;48.296;16.416;2023-03-14T14:49:47;15.10;47.40
75927;DHT22;64605;48.296;16.416;2023-03-14T14:52:16;15.10;47.00
75927;DHT22;64605;48.296;16.416;2023-03-14T14:54:48;15.00;47.00
75927;DHT22;64605;48.296;16.416;2023-03-14T14:57:22;15.00;46.80
75927;DHT22;64605;48.296;16.416;2023-03-14T14:59:50;15.00;47.00
75927;DHT22;64605;48.296;16.416;2023-03-14T15:04:53;15.00;46.80
75927;DHT22;64605;48.296;16.416;2023-03-14T15:07:18;15.10;46.90
75927;DHT22;64605;48.296;16.416;2023-03-14T15:09:45;15.10;47.10
75927;DHT22;64605;48.296;16.416;2023-03-14T15:12:10;15.10;46.80
75927;DHT22;64605;48.296;16.416;2023-03-14T15:14:36;15.10;46.80
75927;DHT22;64605;48.296;16.416;2023-03-14T15:17:02;15.10;46.70
75927;DHT22;64605;48.296;16.416;2023-03-14T15:19:28;15.10;46.80
75927;DHT22;64605;48.296;16.416;2023-03-14T15:21:58;15.10;47.00
75927;DHT22;64605;48.296;16.416;2023-03-14T15:24:24;15.10;46.90
75927;DHT22;64605;48.296;16.416;2023-03-14T15:26:50;15.10;47.00
75927;DHT22;64605;48.296;16.416;2023-03-14T15:29:15;15.10;46.90
75927;DHT22;64605;48.296;16.416;2023-03-14T15:31:41;15.10;46.80
75927;DHT22;64605;48.296;16.416;2023-03-14T15:34:09;15.10;46.70
75927;DHT22;64605;48.296;16.416;2023-03-14T15:36:35;15.10;46.70
75927;DHT22;64605;48.296;16.416;2023-03-14T15:39:02;15.20;47.00
75927;DHT22;64605;48.296;16.416;2023-03-14T15:41:28;15.20;47.50
75927;DHT22;64605;48.296;16.416;2023-03-14T15:43:55;15.20;48.80
75927;DHT22;64605;48.296;16.416;2023-03-14T15:46:21;15.20;49.60
75927;DHT22;64605;48.296;16.416;2023-03-14T15:48:48;15.30;51.40
75927;DHT22;64605;48.296;16.416;2023-03-14T15:51:14;15.20;51.20
75927;DHT22;64605;48.296;16.416;2023-03-14T15:53:40;15.20;51.30
75927;DHT22;64605;48.296;16.416;2023-03-14T15:56:12;15.10;51.60
75927;DHT22;64605;48.296;16.416;2023-03-14T15:58:39;15.00;52.20
75927;DHT22;64605;48.296;16.416;2023-03-14T16:01:06;14.90;52.30
75927;DHT22;64605;48.296;16.416;2023-03-14T16:03:34;14.90;52.50
75927;DHT22;64605;48.296;16.416;2023-03-14T16:06:00;14.80;52.60
75927;DHT22;64605;48.296;16.416;2023-03-14T16:08:26;14.70;52.80
75927;DHT22;64605;48.296;16.416;2023-03-14T16:10:54;14.70;53.50
75927;DHT22;64605;48.296;16.416;2023-03-14T16:13:20;14.70;53.20
75927;DHT22;64605;48.296;16.416;2023-03-14T16:15:55;14.70;53.40
75927;DHT22;64605;48.296;16.416;2023-03-14T16:18:21;14.60;53.20
75927;DHT22;64605;48.296;16.416;2023-03-14T16:21:09;14.50;52.70
75927;DHT22;64605;48.296;16.416;2023-03-14T16:23:36;14.50;53.00
75927;DHT22;64605;48.296;16.416;2023-03-14T16:26:06;14.50;53.70